createdAt,value
2018-08-10T00:02:47.748Z,24.20
2018-08-10T00:07:50.963Z,24.20
2018-08-10T00:12:54.183Z,24.20
2018-08-10T00:17:57.407Z,24.20
2018-08-10T00:23:00.612Z,24.20
2018-08-10T00:28:03.859Z,24.20
2018-08-10T00:33:07.062Z,24.10
2018-08-10T00:38:10.258Z,24.10
2018-08-10T00:43:13.455Z,24.10
2018-08-10T00:48:16.651Z,24.00
2018-08-10T00:53:19.848Z,24.00
2018-08-10T00:58:23.755Z,23.90
2018-08-10T01:03:26.955Z,23.90
2018-08-10T01:08:30.147Z,23.90
2018-08-10T01:13:33.425Z,23.80
2018-08-10T01:18:36.547Z,23.80
2018-08-10T01:23:39.753Z,23.80
2018-08-10T01:28:43.037Z,23.80
2018-08-10T01:33:46.197Z,23.70
2018-08-10T01:38:49.405Z,23.70
2018-08-10T01:43:52.619Z,23.70
2018-08-10T01:48:55.843Z,23.60
2018-08-10T01:53:59.143Z,23.60
2018-08-10T01:59:02.367Z,23.50
2018-08-10T02:04:05.591Z,23.50
2018-08-10T02:09:09.756Z,23.60
2018-08-10T02:14:12.991Z,23.50
2018-08-10T02:19:16.220Z,23.50
2018-08-10T02:24:19.435Z,23.50
2018-08-10T02:29:22.655Z,23.40
2018-08-10T02:34:25.999Z,23.40
2018-08-10T02:39:29.206Z,23.40
2018-08-10T02:44:32.411Z,23.40
2018-08-10T02:49:35.655Z,23.30
2018-08-10T02:54:38.891Z,23.30
2018-08-10T02:59:42.676Z,23.30
2018-08-10T03:04:45.946Z,23.30
2018-08-10T03:09:49.178Z,23.20
2018-08-10T03:14:52.375Z,23.20
2018-08-10T03:19:55.596Z,23.20
2018-08-10T03:24:58.813Z,22.80
2018-08-10T03:30:02.038Z,23.10
2018-08-10T03:35:05.239Z,23.10
2018-08-10T03:40:10.284Z,23.10
2018-08-10T03:45:13.483Z,22.60
2018-08-10T03:50:16.703Z,22.90
2018-08-10T03:55:19.964Z,23.00
2018-08-10T04:00:23.187Z,23.00
2018-08-10T04:05:26.403Z,22.90
2018-08-10T04:10:29.633Z,22.90
2018-08-10T04:15:32.882Z,22.90
2018-08-10T04:20:36.111Z,22.80
2018-08-10T04:25:39.349Z,22.80
2018-08-10T04:30:42.571Z,22.20
2018-08-10T04:35:45.820Z,22.70
2018-08-10T04:40:49.071Z,22.50
2018-08-10T04:45:52.306Z,22.80
2018-08-10T04:50:55.535Z,22.80
2018-08-10T04:55:58.884Z,22.50
2018-08-10T05:01:02.096Z,22.70
2018-08-10T05:06:05.456Z,22.70
2018-08-10T05:11:08.759Z,22.70
2018-08-10T05:16:11.983Z,22.60
2018-08-10T05:21:15.196Z,22.70
2018-08-10T05:26:18.421Z,22.60
2018-08-10T05:31:21.685Z,22.50
2018-08-10T05:36:24.888Z,22.50
2018-08-10T05:41:28.099Z,22.40
2018-08-10T05:46:31.308Z,22.60
2018-08-10T05:51:34.581Z,22.40
2018-08-10T05:56:37.799Z,22.50
2018-08-10T06:01:41.022Z,22.60
2018-08-10T06:06:44.245Z,22.30
2018-08-10T06:11:47.461Z,22.60
2018-08-10T06:16:50.705Z,22.60
2018-08-10T06:21:53.916Z,22.60
2018-08-10T06:27:33.411Z,22.70
2018-08-10T06:32:36.618Z,22.90
2018-08-10T06:37:39.843Z,22.90
2018-08-10T06:42:43.071Z,22.80
2018-08-10T06:47:46.305Z,22.70
2018-08-10T06:52:49.527Z,23.00
2018-08-10T06:57:52.906Z,22.90
2018-08-10T07:02:56.214Z,22.90
2018-08-10T07:07:59.458Z,23.00
2018-08-10T07:13:02.785Z,23.10
2018-08-10T07:18:06.051Z,23.00
2018-08-10T07:23:09.392Z,23.00
2018-08-10T07:28:12.618Z,23.20
2018-08-10T07:33:15.839Z,23.20
2018-08-10T07:38:19.203Z,23.30
2018-08-10T07:43:22.425Z,23.30
2018-08-10T07:48:25.643Z,23.00
2018-08-10T07:53:28.888Z,23.30
2018-08-10T07:58:32.131Z,23.40
2018-08-10T08:03:35.404Z,23.50
2018-08-10T08:08:38.635Z,23.40
2018-08-10T08:13:41.914Z,23.50
2018-08-10T08:18:45.108Z,23.30
2018-08-10T08:23:48.335Z,23.20
2018-08-10T08:28:51.559Z,23.70
2018-08-10T08:34:05.996Z,23.70
2018-08-10T08:40:16.897Z,23.70
2018-08-10T08:46:23.477Z,23.80
2018-08-10T08:51:26.812Z,23.80
2018-08-10T08:56:40.663Z,23.80
2018-08-10T09:01:43.875Z,23.80
2018-08-10T09:06:47.108Z,23.90
2018-08-10T09:11:50.315Z,23.90
2018-08-10T09:16:53.531Z,24.00
2018-08-10T09:21:56.740Z,24.00
2018-08-10T09:27:00.513Z,23.90
2018-08-10T09:32:04.049Z,24.00
2018-08-10T09:37:08.083Z,24.00
2018-08-10T09:42:11.309Z,24.00
2018-08-10T09:47:14.511Z,24.10
2018-08-10T09:52:17.716Z,24.20
2018-08-10T09:57:20.939Z,24.20
2018-08-10T10:02:24.171Z,24.20
2018-08-10T10:07:27.392Z,24.20
2018-08-10T10:12:30.607Z,24.30
2018-08-10T10:17:33.861Z,24.40
2018-08-10T10:22:37.139Z,24.40
2018-08-10T10:27:40.356Z,24.50
2018-08-10T10:32:43.739Z,24.60
2018-08-10T10:37:46.900Z,24.60
2018-08-10T10:42:50.107Z,24.60
2018-08-10T10:47:53.316Z,24.60
2018-08-10T10:52:56.519Z,24.70
2018-08-10T10:57:59.754Z,24.80
2018-08-10T11:03:02.975Z,24.90
2018-08-10T11:08:06.392Z,24.90
2018-08-10T11:13:09.612Z,25.10
2018-08-10T11:18:12.928Z,25.10
2018-08-10T11:23:16.078Z,25.10
2018-08-10T11:28:19.316Z,25.20
2018-08-10T11:33:22.538Z,25.20
2018-08-10T11:38:25.766Z,25.30
2018-08-10T11:43:29.000Z,25.40
2018-08-10T11:48:32.231Z,25.40
2018-08-10T11:53:35.475Z,25.60
2018-08-10T11:58:38.706Z,25.90
2018-08-10T12:03:41.915Z,26.10
2018-08-10T12:08:45.114Z,26.20
2018-08-10T12:13:48.315Z,26.20
2018-08-10T12:18:51.541Z,26.10
2018-08-10T12:23:54.763Z,26.20
2018-08-10T12:28:58.038Z,26.20
2018-08-10T12:34:01.247Z,26.40
2018-08-10T12:39:08.831Z,26.70
2018-08-10T12:44:12.043Z,26.70
2018-08-10T12:49:15.264Z,26.90
2018-08-10T12:54:18.528Z,26.80
2018-08-10T12:59:21.747Z,26.70
2018-08-10T13:04:25.227Z,26.80
2018-08-10T13:09:28.471Z,27.00
2018-08-10T13:14:31.695Z,27.00
2018-08-10T13:19:34.944Z,27.20
2018-08-10T13:24:38.175Z,27.20
2018-08-10T13:29:41.409Z,26.40
2018-08-10T13:34:44.623Z,26.70
2018-08-10T13:39:48.555Z,26.90
2018-08-10T13:44:51.787Z,27.00
2018-08-10T13:49:55.056Z,27.00
2018-08-10T13:54:58.306Z,26.90
2018-08-10T14:00:01.503Z,27.00
2018-08-10T14:05:05.017Z,27.00
2018-08-10T14:10:08.275Z,27.00
2018-08-10T14:15:11.990Z,27.00
2018-08-10T14:20:15.223Z,27.00
2018-08-10T14:25:18.452Z,27.00
2018-08-10T14:30:21.675Z,26.80
2018-08-10T14:35:24.908Z,26.80
2018-08-10T14:40:28.116Z,26.70
2018-08-10T14:45:31.335Z,26.70
2018-08-10T14:50:34.559Z,26.70
2018-08-10T14:55:37.810Z,26.60
2018-08-10T15:00:41.054Z,26.60
2018-08-10T15:05:44.262Z,26.60
2018-08-10T15:10:47.471Z,26.50
2018-08-10T15:15:50.699Z,26.60
2018-08-10T15:20:54.119Z,26.70
2018-08-10T15:25:57.719Z,26.80
2018-08-10T15:31:00.926Z,26.90
2018-08-10T15:36:04.259Z,27.00
2018-08-10T15:41:07.531Z,26.80
2018-08-10T15:46:10.755Z,26.70
2018-08-10T15:51:14.027Z,26.60
2018-08-10T15:56:17.484Z,26.50
2018-08-10T16:01:20.579Z,26.40
2018-08-10T16:06:23.814Z,26.40
2018-08-10T16:11:27.049Z,26.40
2018-08-10T16:16:30.298Z,26.40
2018-08-10T16:21:33.683Z,26.40
2018-08-10T16:26:36.910Z,26.30
2018-08-10T16:31:40.256Z,26.30
2018-08-10T16:36:43.476Z,26.30
2018-08-10T16:41:46.708Z,26.30
2018-08-10T16:46:49.934Z,26.30
2018-08-10T16:51:53.195Z,26.20
2018-08-10T16:56:56.434Z,26.30
2018-08-10T17:01:59.677Z,26.20
2018-08-10T17:07:03.000Z,26.20
2018-08-10T17:12:06.679Z,26.20
2018-08-10T17:17:09.895Z,26.10
2018-08-10T17:22:13.138Z,25.90
2018-08-10T17:27:16.375Z,25.90
2018-08-10T17:32:19.616Z,25.70
2018-08-10T17:37:22.846Z,25.50
2018-08-10T17:42:26.060Z,25.50
2018-08-10T17:47:29.287Z,25.40
2018-08-10T17:52:32.502Z,25.40
2018-08-10T17:57:35.759Z,25.40
2018-08-10T18:02:39.027Z,25.40
2018-08-10T18:07:42.855Z,25.30
2018-08-10T18:12:46.178Z,25.20
2018-08-10T18:17:49.584Z,25.10
2018-08-10T18:22:53.135Z,25.10
2018-08-10T18:27:56.383Z,24.90
2018-08-10T18:32:59.636Z,24.90
2018-08-10T18:38:03.418Z,24.90
2018-08-10T18:43:06.767Z,25.00
2018-08-10T18:48:10.081Z,25.00
2018-08-10T18:53:13.370Z,25.00
2018-08-10T18:58:16.678Z,25.00
2018-08-10T19:03:19.979Z,25.00
2018-08-10T19:08:23.267Z,25.00
2018-08-10T19:13:26.483Z,24.90
2018-08-10T19:18:29.703Z,25.00
2018-08-10T19:23:32.919Z,24.90
2018-08-10T19:28:36.127Z,24.80
2018-08-10T19:33:39.361Z,24.70
2018-08-10T19:38:42.583Z,24.70
2018-08-10T19:43:45.871Z,24.60
2018-08-10T19:48:49.091Z,24.60
2018-08-10T19:53:52.307Z,24.60
2018-08-10T19:58:55.558Z,24.50
2018-08-10T20:03:58.783Z,24.40
2018-08-10T20:09:02.087Z,24.40
2018-08-10T20:14:05.371Z,24.30
2018-08-10T20:19:08.591Z,24.30
2018-08-10T20:24:11.856Z,24.20
2018-08-10T20:29:15.085Z,24.10
2018-08-10T20:34:18.652Z,24.10
2018-08-10T20:39:21.871Z,24.10
2018-08-10T20:44:25.503Z,24.10
2018-08-10T20:49:28.680Z,24.10
2018-08-10T20:54:32.079Z,24.00
2018-08-10T20:59:35.291Z,24.00
2018-08-10T21:04:38.495Z,24.00
2018-08-10T21:09:41.710Z,23.90
2018-08-10T21:14:45.983Z,23.80
2018-08-10T21:19:49.192Z,23.80
2018-08-10T21:24:52.428Z,23.70
2018-08-10T21:29:55.667Z,23.70
2018-08-10T21:34:58.886Z,23.60
2018-08-10T21:40:02.161Z,23.60
2018-08-10T21:45:05.755Z,23.60
2018-08-10T21:50:11.220Z,23.50
2018-08-10T21:55:14.473Z,23.50
2018-08-10T22:00:47.432Z,23.40
2018-08-10T22:05:50.955Z,23.40
2018-08-10T22:10:54.171Z,23.40
2018-08-10T22:16:02.950Z,23.30
2018-08-10T22:21:06.159Z,23.30
2018-08-10T22:26:09.514Z,23.30
2018-08-10T22:31:12.715Z,23.20
2018-08-10T22:36:15.939Z,23.20
2018-08-10T22:41:20.162Z,23.20
2018-08-10T22:46:23.387Z,23.10
2018-08-10T22:51:26.588Z,23.10
2018-08-10T22:56:29.811Z,23.00
2018-08-10T23:01:33.028Z,23.00
2018-08-10T23:06:36.238Z,23.00
2018-08-10T23:11:39.507Z,23.00
2018-08-10T23:16:42.738Z,23.00
2018-08-10T23:21:45.948Z,23.00
2018-08-10T23:26:49.174Z,22.90
2018-08-10T23:31:52.392Z,22.70
2018-08-10T23:36:55.619Z,22.80
2018-08-10T23:41:58.859Z,22.90
2018-08-10T23:47:02.080Z,22.60
2018-08-10T23:52:05.822Z,22.70
2018-08-10T23:57:09.056Z,22.70
